EWG1W8 EHAM-EDDH
Flight info
| Callsign | EWG1W8 |
|---|---|
| Flight time | 0h 47m |
| Altitude | 33000 |
| Route | ANDIK M105 RIBSO RIBSO7A |
| Aircraft | A320/M-SDE3FGHIRWY/LB1 |
Departure
| Time | 2026-05-07 12:30 |
|---|---|
| Airport | Amsterdam Airport Schiphol (EHAM) |
Arrival
| Time | 2026-05-07 13:18 |
|---|---|
| Airport | Hamburg Helmut Schmidt Airport (EDDH) |
| Time | Latitude | Longitude | Altitude | Speed | Heading |
|---|---|---|---|---|---|
| 2026-05-07 11:50 | 52.31294 | 4.74408 | -3 ft | 0 kts | 274° |
| 2026-05-07 12:23 | 52.31293 | 4.74436 | -3 ft | 1 kts | 273° |
| 2026-05-07 12:23 | 52.31291 | 4.74475 | -3 ft | 4 kts | 279° |
| 2026-05-07 12:23 | 52.31284 | 4.74517 | -3 ft | 4 kts | 294° |
| 2026-05-07 12:23 | 52.31274 | 4.74546 | -3 ft | 0 kts | 311° |
| 2026-05-07 12:25 | 52.31287 | 4.74512 | -3 ft | 7 kts | 293° |
| 2026-05-07 12:25 | 52.31292 | 4.74436 | -3 ft | 7 kts | 275° |
| 2026-05-07 12:26 | 52.31299 | 4.74317 | -3 ft | 10 kts | 280° |
| 2026-05-07 12:26 | 52.31349 | 4.74274 | -3 ft | 8 kts | 342° |
| 2026-05-07 12:26 | 52.31386 | 4.74216 | -3 ft | 8 kts | 294° |
| 2026-05-07 12:26 | 52.31365 | 4.74145 | -3 ft | 10 kts | 210° |
| 2026-05-07 12:27 | 52.31280 | 4.74128 | -3 ft | 12 kts | 187° |
| 2026-05-07 12:27 | 52.31185 | 4.74118 | -3 ft | 17 kts | 183° |
| 2026-05-07 12:27 | 52.31063 | 4.74106 | -3 ft | 18 kts | 182° |
| 2026-05-07 12:27 | 52.30929 | 4.74093 | -3 ft | 20 kts | 183° |
| 2026-05-07 12:28 | 52.30782 | 4.74080 | -3 ft | 22 kts | 183° |
| 2026-05-07 12:28 | 52.30622 | 4.74068 | -3 ft | 24 kts | 183° |
| 2026-05-07 12:28 | 52.30449 | 4.74051 | -3 ft | 25 kts | 184° |
| 2026-05-07 12:28 | 52.30308 | 4.74016 | -3 ft | 19 kts | 201° |
| 2026-05-07 12:29 | 52.30212 | 4.73901 | -3 ft | 14 kts | 223° |
| 2026-05-07 12:29 | 52.30188 | 4.73832 | -3 ft | 6 kts | 265° |
| 2026-05-07 12:29 | 52.30234 | 4.73750 | -4 ft | 15 kts | 352° |
| 2026-05-07 12:29 | 52.30356 | 4.73750 | -5 ft | 19 kts | 1° |
| 2026-05-07 12:30 | 52.30469 | 4.73759 | -4 ft | 39 kts | 3° |
| 2026-05-07 12:30 | 52.30989 | 4.73808 | -2 ft | 106 kts | 3° |
| 2026-05-07 12:30 | 52.31905 | 4.73891 | 0 ft | 156 kts | 3° |
| 2026-05-07 12:30 | 52.32977 | 4.73990 | 636 ft | 151 kts | 8° |
| 2026-05-07 12:31 | 52.33982 | 4.74469 | 1337 ft | 152 kts | 22° |
| 2026-05-07 12:31 | 52.35032 | 4.75178 | 1710 ft | 174 kts | 21° |
| 2026-05-07 12:31 | 52.36238 | 4.75933 | 2089 ft | 197 kts | 20° |
| 2026-05-07 12:31 | 52.37592 | 4.76815 | 2443 ft | 222 kts | 29° |
| 2026-05-07 12:32 | 52.38833 | 4.78526 | 2904 ft | 246 kts | 45° |
| 2026-05-07 12:32 | 52.40053 | 4.80573 | 3684 ft | 255 kts | 45° |
| 2026-05-07 12:32 | 52.41305 | 4.82670 | 4610 ft | 260 kts | 45° |
| 2026-05-07 12:32 | 52.42612 | 4.84758 | 5502 ft | 265 kts | 37° |
| 2026-05-07 12:33 | 52.46138 | 4.86168 | 7158 ft | 274 kts | 356° |
| 2026-05-07 12:33 | 52.48054 | 4.85986 | 8004 ft | 278 kts | 356° |
| 2026-05-07 12:33 | 52.50001 | 4.85788 | 8843 ft | 283 kts | 356° |
| 2026-05-07 12:34 | 52.51982 | 4.85840 | 9656 ft | 288 kts | 9° |
| 2026-05-07 12:34 | 52.53907 | 4.86828 | 10421 ft | 294 kts | 26° |
| 2026-05-07 12:34 | 52.55650 | 4.88793 | 10718 ft | 316 kts | 45° |
| 2026-05-07 12:34 | 52.57092 | 4.91661 | 11023 ft | 334 kts | 52° |
| 2026-05-07 12:35 | 52.58521 | 4.94702 | 11085 ft | 337 kts | 52° |
| 2026-05-07 12:35 | 52.59978 | 4.97769 | 11730 ft | 341 kts | 52° |
| 2026-05-07 12:35 | 52.61451 | 5.00847 | 12545 ft | 344 kts | 52° |
| 2026-05-07 12:35 | 52.62941 | 5.03953 | 13320 ft | 347 kts | 51° |
| 2026-05-07 12:36 | 52.64444 | 5.07087 | 14055 ft | 351 kts | 51° |
| 2026-05-07 12:36 | 52.65960 | 5.10255 | 14714 ft | 354 kts | 51° |
| 2026-05-07 12:36 | 52.67492 | 5.13460 | 15369 ft | 358 kts | 51° |
| 2026-05-07 12:36 | 52.69035 | 5.16703 | 16022 ft | 361 kts | 51° |
| 2026-05-07 12:37 | 52.70592 | 5.19980 | 16651 ft | 365 kts | 51° |
| 2026-05-07 12:37 | 52.72165 | 5.23296 | 17283 ft | 369 kts | 51° |
| 2026-05-07 12:37 | 52.73646 | 5.26778 | 17916 ft | 373 kts | 60° |
| 2026-05-07 12:37 | 52.74738 | 5.30683 | 18493 ft | 377 kts | 70° |
| 2026-05-07 12:38 | 52.75615 | 5.34778 | 19038 ft | 380 kts | 70° |
| 2026-05-07 12:38 | 52.76502 | 5.38907 | 19599 ft | 383 kts | 70° |
| 2026-05-07 12:38 | 52.77387 | 5.43012 | 20154 ft | 386 kts | 70° |
| 2026-05-07 12:38 | 52.78305 | 5.47260 | 20724 ft | 389 kts | 70° |
| 2026-05-07 12:39 | 52.79203 | 5.51426 | 21263 ft | 392 kts | 70° |
| 2026-05-07 12:39 | 52.80121 | 5.55691 | 21804 ft | 395 kts | 70° |
| 2026-05-07 12:39 | 52.81043 | 5.59989 | 22344 ft | 399 kts | 70° |
| 2026-05-07 12:39 | 52.81970 | 5.64325 | 22889 ft | 402 kts | 71° |
| 2026-05-07 12:40 | 52.82903 | 5.68696 | 23429 ft | 404 kts | 71° |
| 2026-05-07 12:40 | 52.83840 | 5.73096 | 23893 ft | 407 kts | 71° |
| 2026-05-07 12:40 | 52.84778 | 5.77529 | 24348 ft | 409 kts | 71° |
| 2026-05-07 12:40 | 52.85719 | 5.81987 | 24770 ft | 411 kts | 71° |
| 2026-05-07 12:41 | 52.86663 | 5.86463 | 25202 ft | 413 kts | 71° |
| 2026-05-07 12:41 | 52.87612 | 5.90967 | 25624 ft | 415 kts | 71° |
| 2026-05-07 12:41 | 52.88565 | 5.95490 | 26041 ft | 417 kts | 71° |
| 2026-05-07 12:41 | 52.89524 | 6.00036 | 26434 ft | 419 kts | 71° |
| 2026-05-07 12:42 | 52.90482 | 6.04608 | 26820 ft | 421 kts | 71° |
| 2026-05-07 12:42 | 52.91441 | 6.09206 | 27199 ft | 423 kts | 71° |
| 2026-05-07 12:42 | 52.92402 | 6.13838 | 27578 ft | 425 kts | 71° |
| 2026-05-07 12:42 | 52.93353 | 6.18424 | 27939 ft | 428 kts | 71° |
| 2026-05-07 12:43 | 52.94320 | 6.23108 | 28311 ft | 429 kts | 71° |
| 2026-05-07 12:43 | 52.95290 | 6.27804 | 28689 ft | 431 kts | 71° |
| 2026-05-07 12:43 | 52.96262 | 6.32517 | 29032 ft | 433 kts | 71° |
| 2026-05-07 12:43 | 52.97238 | 6.37258 | 29371 ft | 435 kts | 71° |
| 2026-05-07 12:44 | 52.98219 | 6.42021 | 29703 ft | 437 kts | 71° |
| 2026-05-07 12:44 | 52.99206 | 6.46813 | 30017 ft | 439 kts | 71° |
| 2026-05-07 12:44 | 53.00193 | 6.51624 | 30296 ft | 441 kts | 71° |
| 2026-05-07 12:44 | 53.01183 | 6.56461 | 30533 ft | 444 kts | 71° |
| 2026-05-07 12:45 | 53.02173 | 6.61322 | 30760 ft | 446 kts | 71° |
| 2026-05-07 12:45 | 53.03165 | 6.66216 | 30980 ft | 448 kts | 71° |
| 2026-05-07 12:45 | 53.04158 | 6.71137 | 31188 ft | 450 kts | 71° |
| 2026-05-07 12:45 | 53.05155 | 6.76088 | 31416 ft | 452 kts | 71° |
| 2026-05-07 12:46 | 53.06154 | 6.81056 | 31711 ft | 452 kts | 71° |
| 2026-05-07 12:46 | 53.07147 | 6.86006 | 32041 ft | 451 kts | 71° |
| 2026-05-07 12:46 | 53.08138 | 6.90947 | 32360 ft | 450 kts | 71° |
| 2026-05-07 12:46 | 53.09127 | 6.95890 | 32681 ft | 450 kts | 71° |
| 2026-05-07 12:47 | 53.10098 | 7.00761 | 32982 ft | 450 kts | 71° |
| 2026-05-07 12:47 | 53.11078 | 7.05691 | 33067 ft | 445 kts | 71° |
| 2026-05-07 12:47 | 53.12984 | 7.15324 | 33072 ft | 435 kts | 72° |
| 2026-05-07 12:48 | 53.14868 | 7.24871 | 33073 ft | 433 kts | 72° |
| 2026-05-07 12:48 | 53.16742 | 7.34418 | 33074 ft | 434 kts | 72° |
| 2026-05-07 12:49 | 53.18607 | 7.43977 | 33073 ft | 434 kts | 72° |
| 2026-05-07 12:49 | 53.20459 | 7.53544 | 33072 ft | 433 kts | 72° |
| 2026-05-07 12:50 | 53.22310 | 7.63157 | 33073 ft | 440 kts | 72° |
| 2026-05-07 12:50 | 53.23243 | 7.67971 | 32888 ft | 433 kts | 72° |
| 2026-05-07 12:50 | 53.24161 | 7.72718 | 32416 ft | 427 kts | 72° |
| 2026-05-07 12:51 | 53.25067 | 7.77417 | 31910 ft | 423 kts | 72° |
| 2026-05-07 12:51 | 53.25958 | 7.82075 | 31413 ft | 420 kts | 72° |
| 2026-05-07 12:51 | 53.26839 | 7.86710 | 30915 ft | 417 kts | 72° |
| 2026-05-07 12:51 | 53.27699 | 7.91248 | 30429 ft | 414 kts | 72° |
| 2026-05-07 12:52 | 53.28563 | 7.95810 | 29919 ft | 411 kts | 72° |
| 2026-05-07 12:52 | 53.29419 | 8.00352 | 29348 ft | 408 kts | 72° |
| 2026-05-07 12:52 | 53.30269 | 8.04861 | 28823 ft | 405 kts | 72° |
| 2026-05-07 12:52 | 53.31111 | 8.09332 | 28326 ft | 402 kts | 72° |
| 2026-05-07 12:53 | 53.31946 | 8.13773 | 27824 ft | 399 kts | 72° |
| 2026-05-07 12:53 | 53.32783 | 8.18179 | 27331 ft | 396 kts | 71° |
| 2026-05-07 12:53 | 53.33699 | 8.22512 | 26853 ft | 393 kts | 69° |
| 2026-05-07 12:53 | 53.34679 | 8.26767 | 26388 ft | 391 kts | 68° |
| 2026-05-07 12:54 | 53.35686 | 8.30978 | 25924 ft | 389 kts | 68° |
| 2026-05-07 12:54 | 53.36691 | 8.35164 | 25464 ft | 386 kts | 68° |
| 2026-05-07 12:54 | 53.37682 | 8.39331 | 25015 ft | 384 kts | 68° |
| 2026-05-07 12:54 | 53.38651 | 8.43485 | 24561 ft | 382 kts | 69° |
| 2026-05-07 12:55 | 53.39602 | 8.47625 | 24124 ft | 379 kts | 69° |
| 2026-05-07 12:55 | 53.40548 | 8.51729 | 23684 ft | 377 kts | 68° |
| 2026-05-07 12:55 | 53.41566 | 8.55769 | 23185 ft | 375 kts | 66° |
| 2026-05-07 12:55 | 53.42642 | 8.59741 | 22693 ft | 373 kts | 65° |
| 2026-05-07 12:56 | 53.43735 | 8.63660 | 22226 ft | 370 kts | 64° |
| 2026-05-07 12:56 | 53.44826 | 8.67553 | 21784 ft | 367 kts | 64° |
| 2026-05-07 12:56 | 53.45902 | 8.71428 | 21345 ft | 365 kts | 65° |
| 2026-05-07 12:56 | 53.46958 | 8.75283 | 20914 ft | 362 kts | 65° |
| 2026-05-07 12:57 | 53.47995 | 8.79124 | 20488 ft | 360 kts | 65° |
| 2026-05-07 12:57 | 53.49017 | 8.82946 | 20086 ft | 358 kts | 65° |
| 2026-05-07 12:57 | 53.50029 | 8.86746 | 19681 ft | 355 kts | 65° |
| 2026-05-07 12:57 | 53.51031 | 8.90517 | 19285 ft | 353 kts | 65° |
| 2026-05-07 12:58 | 53.52031 | 8.94275 | 18899 ft | 351 kts | 65° |
| 2026-05-07 12:58 | 53.53072 | 8.97962 | 18520 ft | 348 kts | 59° |
| 2026-05-07 12:58 | 53.54461 | 9.01199 | 18134 ft | 344 kts | 46° |
| 2026-05-07 12:58 | 53.56226 | 9.03882 | 17717 ft | 341 kts | 35° |
| 2026-05-07 12:59 | 53.58153 | 9.06186 | 17302 ft | 339 kts | 34° |
| 2026-05-07 12:59 | 53.60069 | 9.08479 | 16915 ft | 337 kts | 34° |
| 2026-05-07 12:59 | 53.61972 | 9.10760 | 16533 ft | 335 kts | 34° |
| 2026-05-07 12:59 | 53.63862 | 9.13023 | 16152 ft | 332 kts | 34° |
| 2026-05-07 13:00 | 53.65740 | 9.15278 | 15782 ft | 330 kts | 34° |
| 2026-05-07 13:00 | 53.67605 | 9.17524 | 15420 ft | 329 kts | 34° |
| 2026-05-07 13:00 | 53.69460 | 9.19760 | 15071 ft | 327 kts | 34° |
| 2026-05-07 13:00 | 53.71307 | 9.21985 | 14719 ft | 325 kts | 35° |
| 2026-05-07 13:01 | 53.73141 | 9.24194 | 14379 ft | 323 kts | 35° |
| 2026-05-07 13:01 | 53.74964 | 9.26394 | 14037 ft | 321 kts | 35° |
| 2026-05-07 13:01 | 53.76775 | 9.28582 | 13677 ft | 319 kts | 35° |
| 2026-05-07 13:01 | 53.78421 | 9.31062 | 13301 ft | 317 kts | 53° |
| 2026-05-07 13:02 | 53.79333 | 9.34414 | 12924 ft | 315 kts | 79° |
| 2026-05-07 13:02 | 53.79306 | 9.38065 | 12542 ft | 312 kts | 104° |
| 2026-05-07 13:02 | 53.78397 | 9.41348 | 12146 ft | 309 kts | 124° |
| 2026-05-07 13:02 | 53.77140 | 9.44288 | 11739 ft | 308 kts | 135° |
| 2026-05-07 13:03 | 53.75369 | 9.46187 | 11561 ft | 298 kts | 162° |
| 2026-05-07 13:03 | 53.73353 | 9.46535 | 11330 ft | 290 kts | 189° |
| 2026-05-07 13:03 | 53.71520 | 9.45342 | 11203 ft | 280 kts | 213° |
| 2026-05-07 13:03 | 53.69900 | 9.43716 | 11070 ft | 270 kts | 199° |
| 2026-05-07 13:04 | 53.68089 | 9.43346 | 10934 ft | 260 kts | 175° |
| 2026-05-07 13:04 | 53.66322 | 9.43832 | 10687 ft | 256 kts | 166° |
| 2026-05-07 13:04 | 53.64607 | 9.44622 | 10401 ft | 254 kts | 163° |
| 2026-05-07 13:04 | 53.62914 | 9.45474 | 10104 ft | 253 kts | 163° |
| 2026-05-07 13:05 | 53.61225 | 9.46299 | 9788 ft | 252 kts | 163° |
| 2026-05-07 13:05 | 53.59537 | 9.47074 | 9480 ft | 251 kts | 164° |
| 2026-05-07 13:05 | 53.57851 | 9.47801 | 9163 ft | 250 kts | 164° |
| 2026-05-07 13:05 | 53.56168 | 9.48500 | 8840 ft | 248 kts | 165° |
| 2026-05-07 13:06 | 53.54491 | 9.49178 | 8508 ft | 247 kts | 164° |
| 2026-05-07 13:06 | 53.52824 | 9.49841 | 8167 ft | 246 kts | 165° |
| 2026-05-07 13:06 | 53.51126 | 9.50011 | 7836 ft | 247 kts | 186° |
| 2026-05-07 13:06 | 53.49492 | 9.49110 | 7477 ft | 249 kts | 208° |
| 2026-05-07 13:07 | 53.48164 | 9.47251 | 7141 ft | 251 kts | 229° |
| 2026-05-07 13:07 | 53.47042 | 9.44999 | 6779 ft | 251 kts | 229° |
| 2026-05-07 13:07 | 53.45920 | 9.42758 | 6438 ft | 250 kts | 229° |
| 2026-05-07 13:07 | 53.44798 | 9.40531 | 6095 ft | 250 kts | 228° |
| 2026-05-07 13:08 | 53.43677 | 9.38323 | 5761 ft | 248 kts | 226° |
| 2026-05-07 13:08 | 53.42331 | 9.36621 | 5421 ft | 241 kts | 198° |
| 2026-05-07 13:08 | 53.40721 | 9.36210 | 5083 ft | 232 kts | 168° |
| 2026-05-07 13:08 | 53.39247 | 9.37094 | 4995 ft | 225 kts | 142° |
| 2026-05-07 13:09 | 53.38023 | 9.38748 | 4994 ft | 226 kts | 136° |
| 2026-05-07 13:09 | 53.36878 | 9.40502 | 4994 ft | 224 kts | 124° |
| 2026-05-07 13:09 | 53.36282 | 9.42842 | 4997 ft | 220 kts | 95° |
| 2026-05-07 13:09 | 53.36491 | 9.45355 | 5007 ft | 220 kts | 65° |
| 2026-05-07 13:10 | 53.37383 | 9.47439 | 4998 ft | 220 kts | 51° |
| 2026-05-07 13:10 | 53.38357 | 9.49356 | 4996 ft | 214 kts | 51° |
| 2026-05-07 13:10 | 53.39318 | 9.51260 | 5006 ft | 217 kts | 51° |
| 2026-05-07 13:10 | 53.40304 | 9.53219 | 5002 ft | 221 kts | 52° |
| 2026-05-07 13:11 | 53.41298 | 9.55196 | 5006 ft | 222 kts | 51° |
| 2026-05-07 13:11 | 53.42294 | 9.57179 | 5004 ft | 222 kts | 52° |
| 2026-05-07 13:11 | 53.43292 | 9.59168 | 5008 ft | 223 kts | 51° |
| 2026-05-07 13:11 | 53.44289 | 9.61156 | 5004 ft | 223 kts | 52° |
| 2026-05-07 13:12 | 53.45278 | 9.63150 | 5008 ft | 221 kts | 51° |
| 2026-05-07 13:12 | 53.46243 | 9.65088 | 4891 ft | 214 kts | 51° |
| 2026-05-07 13:12 | 53.47193 | 9.66988 | 4641 ft | 211 kts | 52° |
| 2026-05-07 13:12 | 53.48138 | 9.68874 | 4345 ft | 211 kts | 51° |
| 2026-05-07 13:13 | 53.49076 | 9.70750 | 4060 ft | 210 kts | 51° |
| 2026-05-07 13:13 | 53.50002 | 9.72601 | 3782 ft | 210 kts | 51° |
| 2026-05-07 13:13 | 53.50940 | 9.74478 | 3486 ft | 206 kts | 51° |
| 2026-05-07 13:13 | 53.51845 | 9.76290 | 3241 ft | 198 kts | 51° |
| 2026-05-07 13:14 | 53.52703 | 9.78010 | 2954 ft | 187 kts | 51° |
| 2026-05-07 13:14 | 53.53515 | 9.79640 | 2693 ft | 176 kts | 51° |
| 2026-05-07 13:14 | 53.54268 | 9.81150 | 2472 ft | 162 kts | 52° |
| 2026-05-07 13:14 | 53.54952 | 9.82522 | 2261 ft | 146 kts | 51° |
| 2026-05-07 13:15 | 53.55579 | 9.83782 | 2074 ft | 136 kts | 52° |
| 2026-05-07 13:15 | 53.56180 | 9.84993 | 1883 ft | 134 kts | 51° |
| 2026-05-07 13:15 | 53.56777 | 9.86193 | 1698 ft | 133 kts | 52° |
| 2026-05-07 13:15 | 53.57368 | 9.87382 | 1514 ft | 133 kts | 51° |
| 2026-05-07 13:16 | 53.57957 | 9.88570 | 1335 ft | 131 kts | 52° |
| 2026-05-07 13:16 | 53.58540 | 9.89744 | 1151 ft | 132 kts | 52° |
| 2026-05-07 13:16 | 53.59122 | 9.90917 | 974 ft | 130 kts | 50° |
| 2026-05-07 13:16 | 53.59704 | 9.92090 | 798 ft | 131 kts | 52° |
| 2026-05-07 13:17 | 53.60289 | 9.93270 | 613 ft | 130 kts | 50° |
| 2026-05-07 13:17 | 53.60873 | 9.94442 | 454 ft | 131 kts | 52° |
| 2026-05-07 13:17 | 53.61453 | 9.95639 | 249 ft | 132 kts | 52° |
| 2026-05-07 13:17 | 53.62040 | 9.96806 | 67 ft | 129 kts | 50° |
| 2026-05-07 13:18 | 53.62548 | 9.97830 | 45 ft | 79 kts | 51° |
| 2026-05-07 13:18 | 53.62814 | 9.98370 | 48 ft | 45 kts | 50° |
| 2026-05-07 13:18 | 53.62953 | 9.98656 | 46 ft | 17 kts | 51° |
| 2026-05-07 13:18 | 53.63039 | 9.98824 | 47 ft | 21 kts | 50° |
| 2026-05-07 13:19 | 53.63128 | 9.99006 | 50 ft | 19 kts | 51° |
| 2026-05-07 13:19 | 53.63210 | 9.99178 | 51 ft | 21 kts | 52° |
| 2026-05-07 13:19 | 53.63293 | 9.99447 | 50 ft | 28 kts | 85° |
| 2026-05-07 13:19 | 53.63279 | 9.99634 | 49 ft | 0 kts | 101° |
| 2026-05-07 13:21 | 53.63274 | 9.99688 | 49 ft | 9 kts | 97° |
| 2026-05-07 13:21 | 53.63296 | 9.99793 | 48 ft | 11 kts | 53° |
| 2026-05-07 13:21 | 53.63328 | 9.99861 | 50 ft | 12 kts | 50° |
| 2026-05-07 13:21 | 53.63384 | 9.99972 | 50 ft | 13 kts | 50° |
| 2026-05-07 13:22 | 53.63429 | 10.00092 | 51 ft | 12 kts | 84° |
| 2026-05-07 13:22 | 53.63357 | 10.00230 | 51 ft | 13 kts | 171° |
| 2026-05-07 13:22 | 53.63296 | 10.00236 | 50 ft | 13 kts | 172° |
| 2026-05-07 13:22 | 53.63240 | 10.00302 | 49 ft | 11 kts | 82° |
| 2026-05-07 13:23 | 53.63245 | 10.00363 | 50 ft | 0 kts | 84° |